Time;durP1;ratioP1;P1;durP2;ratioP2;P2;SDS_P1;SDS_P2;PMS_P1;PMS_P2;Temp;Humidity;BMP_temperature;BMP_pressure;BME280_temperature;BME280_humidity;BME280_pressure;Samples;Min_cycle;Max_cycle;Signal;HPM_P1;HPM_P2
2023/01/17 00:02:17;;;;;;;;;9.33;5.00;;;;;4.29;100.00;98457.47;5073056;27;46758;-81
2023/01/17 00:10:17;;;;;;;;;7.00;7.00;;;;;4.18;100.00;98436.53;5088328;27;45438;-79
2023/01/17 01:35:52;;;;;;;;;9.00;7.67;;;;;3.92;100.00;98400.47;5100363;27;45722;-78
2023/01/17 01:38:20;;;;;;;;;13.00;10.33;;;;;3.89;100.00;98390.06;5085031;27;46776;-79
2023/01/17 01:40:48;;;;;;;;;11.67;9.00;;;;;3.93;100.00;98395.91;5101281;27;46155;-78
2023/01/17 01:43:37;;;;;;;;;4.33;4.33;;;;;3.92;100.00;98400.47;5098936;27;45441;-79
2023/01/17 01:46:03;;;;;;;;;12.00;11.33;;;;;3.80;100.00;98378.72;5090772;27;45709;-79
2023/01/17 01:49:04;;;;;;;;;11.00;11.00;;;;;3.91;100.00;98393.41;5094473;27;45898;-77
2023/01/17 01:51:35;;;;;;;;;10.00;8.00;;;;;3.77;100.00;98364.75;5042627;27;45521;-78
2023/01/17 01:54:06;;;;;;;;;10.00;9.33;;;;;3.96;100.00;98388.13;5093120;27;46603;-77
2023/01/17 01:56:32;;;;;;;;;11.00;8.33;;;;;4.01;100.00;98387.44;5096140;27;45757;-79
2023/01/17 01:59:01;;;;;;;;;11.00;9.67;;;;;4.06;100.00;98380.31;5110052;27;45589;-81
2023/01/17 02:01:29;;;;;;;;;7.33;4.67;;;;;4.11;100.00;98367.97;5099392;27;45537;-75
2023/01/17 02:03:54;;;;;;;;;10.00;7.67;;;;;4.15;100.00;98377.31;5090100;27;45806;-79
2023/01/17 02:06:32;;;;;;;;;9.33;9.00;;;;;4.17;100.00;98369.75;5105851;27;45451;-79
2023/01/17 02:09:01;;;;;;;;;9.00;9.00;;;;;4.18;100.00;98363.28;5096335;27;45421;-78
2023/01/17 02:11:27;;;;;;;;;11.00;9.00;;;;;4.13;100.00;98345.00;5079793;27;47255;-79
2023/01/17 02:13:53;;;;;;;;;15.00;11.33;;;;;4.09;100.00;98342.94;5097975;27;45433;-77
2023/01/17 02:16:42;;;;;;;;;11.67;9.00;;;;;4.09;100.00;98353.78;5096740;27;45711;-78
2023/01/17 02:19:30;;;;;;;;;12.33;10.33;;;;;4.06;100.00;98353.19;5096982;27;45901;-77
2023/01/17 02:22:24;;;;;;;;;11.67;10.33;;;;;4.05;100.00;98343.38;5096856;27;45887;-78
2023/01/17 02:25:13;;;;;;;;;15.33;10.00;;;;;4.03;100.00;98337.38;5077718;27;45480;-78
2023/01/17 02:27:58;;;;;;;;;11.00;11.00;;;;;4.01;100.00;98330.50;5090556;27;45484;-79
2023/01/17 02:30:36;;;;;;;;;16.67;11.67;;;;;3.96;100.00;98325.75;5111431;27;45811;-78
2023/01/17 02:33:23;;;;;;;;;14.67;10.00;;;;;3.92;100.00;98321.84;5096976;27;45557;-80
2023/01/17 02:36:03;;;;;;;;;14.00;11.33;;;;;3.87;100.00;98318.97;5088594;27;45687;-77
2023/01/17 02:38:51;;;;;;;;;13.00;9.67;;;;;3.82;100.00;98313.41;5097056;27;45374;-77
2023/01/17 02:41:39;;;;;;;;;13.67;12.67;;;;;3.75;100.00;98304.53;5096643;27;45980;-78
2023/01/17 02:44:08;;;;;;;;;13.67;11.33;;;;;3.74;100.00;98308.28;5096779;27;45940;-75
2023/01/17 02:46:51;;;;;;;;;9.33;9.33;;;;;3.59;100.00;98285.06;5075941;27;45304;-77
2023/01/17 02:49:20;;;;;;;;;14.67;10.33;;;;;3.62;100.00;98291.94;5096325;27;45628;-76
2023/01/17 02:52:20;;;;;;;;;17.33;11.33;;;;;3.56;100.00;98280.09;5089869;27;46922;-76
2023/01/17 02:55:07;;;;;;;;;12.33;10.33;;;;;3.51;100.00;98282.66;5091203;27;46329;-78
2023/01/17 02:57:51;;;;;;;;;10.33;10.33;;;;;3.45;100.00;98275.44;5096438;27;45851;-78
2023/01/17 03:00:33;;;;;;;;;20.50;14.75;;;;;3.40;100.00;98269.84;5093370;27;45619;-78
2023/01/17 03:03:08;;;;;;;;;18.67;13.67;;;;;3.39;100.00;98262.78;5099560;27;45737;-78
2023/01/17 03:05:45;;;;;;;;;13.67;9.67;;;;;3.38;100.00;98266.53;5105834;27;46065;-78
2023/01/17 03:08:11;;;;;;;;;13.33;11.67;;;;;3.34;100.00;98255.34;5096934;27;45975;-76
2023/01/17 03:10:38;;;;;;;;;16.33;13.67;;;;;3.37;100.00;98252.19;5097541;27;45780;-78
2023/01/17 03:13:04;;;;;;;;;13.00;11.33;;;;;3.38;100.00;98245.69;5099446;27;45308;-78
2023/01/17 03:15:30;;;;;;;;;13.00;12.00;;;;;3.36;100.00;98243.19;5099541;27;46353;-76
2023/01/17 03:18:00;;;;;;;;;20.00;12.00;;;;;3.35;100.00;98238.00;5092161;27;45259;-76
2023/01/17 03:20:26;;;;;;;;;18.50;14.50;;;;;3.16;100.00;98205.50;5096390;27;45436;-79
2023/01/17 03:22:52;;;;;;;;;13.33;13.00;;;;;3.27;100.00;98232.91;5106459;27;46084;-80
2023/01/17 03:25:17;;;;;;;;;13.67;13.00;;;;;3.21;100.00;98234.63;5096640;27;45401;-77
2023/01/17 03:27:43;;;;;;;;;20.00;14.33;;;;;3.22;100.00;98225.44;5079858;27;45629;-78
2023/01/17 03:30:09;;;;;;;;;15.00;14.00;;;;;3.21;100.00;98223.78;5100600;27;45635;-76
2023/01/17 03:32:34;;;;;;;;;14.00;13.00;;;;;3.19;100.00;98228.59;5095555;27;46605;-78
2023/01/17 03:35:00;;;;;;;;;9.00;9.00;;;;;3.20;100.00;98222.13;5083707;27;46078;-77
2023/01/17 03:37:25;;;;;;;;;13.33;13.33;;;;;3.16;100.00;98213.63;5087849;27;45381;-79
2023/01/17 03:39:50;;;;;;;;;18.00;16.00;;;;;3.20;100.00;98215.88;5075162;27;45797;-77
2023/01/17 03:42:16;;;;;;;;;18.75;18.25;;;;;3.20;100.00;98222.13;5095358;27;45712;-77
2023/01/17 03:44:41;;;;;;;;;21.33;16.33;;;;;3.17;100.00;98206.31;5095976;27;46321;-77
2023/01/17 03:47:10;;;;;;;;;19.00;15.00;;;;;3.21;100.00;98206.72;5082061;27;45778;-77
2023/01/17 03:49:39;;;;;;;;;24.75;21.00;;;;;3.12;100.00;98201.56;5106352;27;45404;-78
2023/01/17 03:52:05;;;;;;;;;20.25;18.00;;;;;3.15;100.00;98208.44;5096717;27;45959;-77
2023/01/17 03:54:31;;;;;;;;;17.67;14.00;;;;;3.11;100.00;98197.19;5099611;27;47127;-78
2023/01/17 03:56:56;;;;;;;;;21.50;18.00;;;;;3.14;100.00;98202.19;5094558;27;45369;-77
2023/01/17 03:59:22;;;;;;;;;21.25;15.50;;;;;3.16;100.00;98204.69;5079063;27;46090;-75
2023/01/17 04:01:47;;;;;;;;;20.00;16.00;;;;;3.14;100.00;98195.94;5098092;27;45478;-78
2023/01/17 04:04:13;;;;;;;;;20.33;18.67;;;;;3.21;100.00;98195.88;5090971;27;48530;-77
2023/01/17 04:06:39;;;;;;;;;18.75;15.25;;;;;3.08;100.00;98186.81;5092834;27;45456;-77
2023/01/17 04:09:05;;;;;;;;;23.00;19.25;;;;;3.13;100.00;98197.00;5098606;27;45524;-76
2023/01/17 04:11:30;;;;;;;;;20.50;20.25;;;;;3.05;100.00;98181.84;5098478;27;45775;-77
2023/01/17 04:13:55;;;;;;;;;18.75;13.75;;;;;3.15;100.00;98192.19;5099884;27;45775;-77
2023/01/17 04:16:28;;;;;;;;;18.25;14.75;;;;;3.13;100.00;98197.00;5099485;27;45530;-78
2023/01/17 04:18:53;;;;;;;;;29.25;22.50;;;;;3.05;100.00;98187.25;5099731;27;45938;-77
2023/01/17 04:21:19;;;;;;;;;23.75;20.75;;;;;3.11;100.00;98185.53;5068238;28;46021;-78
2023/01/17 04:23:44;;;;;;;;;24.75;24.25;;;;;3.08;100.00;98175.97;5098286;27;46302;-80
2023/01/17 04:26:11;;;;;;;;;20.25;18.00;;;;;3.08;100.00;98181.41;5095957;27;45418;-79
2023/01/17 04:28:36;;;;;;;;;24.25;23.25;;;;;3.04;100.00;98190.19;5100527;27;45371;-77
2023/01/17 04:31:02;;;;;;;;;25.00;24.25;;;;;3.04;100.00;98185.63;5087958;27;45022;-75
2023/01/17 04:33:28;;;;;;;;;25.00;23.25;;;;;3.01;100.00;98177.94;5087673;27;47448;-78
2023/01/17 04:35:53;;;;;;;;;17.25;17.25;;;;;2.98;100.00;98175.69;5096017;27;45473;-79
2023/01/17 04:38:19;;;;;;;;;22.00;19.00;;;;;3.00;100.00;98179.81;5099723;27;45437;-77
2023/01/17 04:40:45;;;;;;;;;21.50;18.00;;;;;2.96;100.00;98169.66;5111397;27;45445;-78
2023/01/17 04:43:10;;;;;;;;;24.00;18.75;;;;;2.90;100.00;98174.06;5081487;27;47029;-77
2023/01/17 04:45:37;;;;;;;;;29.25;23.75;;;;;2.83;100.00;98152.50;5094633;27;45376;-77
2023/01/17 04:48:04;;;;;;;;;22.75;19.25;;;;;2.87;100.00;98163.69;5087273;27;45734;-77
2023/01/17 04:50:31;;;;;;;;;21.25;16.25;;;;;2.85;100.00;98159.56;5098068;27;45770;-79
2023/01/17 04:52:57;;;;;;;;;24.00;18.50;;;;;2.81;100.00;98153.75;5110545;27;46542;-77
2023/01/17 04:55:23;;;;;;;;;26.75;21.25;;;;;2.80;100.00;98150.25;5101462;27;45499;-77
2023/01/17 04:57:48;;;;;;;;;27.75;22.00;;;;;2.77;100.00;98155.25;5063315;27;45681;-79
2023/01/17 05:00:14;;;;;;;;;15.75;13.00;;;;;2.76;100.00;98145.50;5098891;27;45726;-77
2023/01/17 05:02:40;;;;;;;;;18.25;17.50;;;;;2.75;100.00;98143.84;5075444;27;48448;-77
2023/01/17 05:05:06;;;;;;;;;31.00;24.75;;;;;2.71;100.00;98137.19;5093327;27;45340;-78
2023/01/17 05:07:31;;;;;;;;;23.75;22.00;;;;;2.64;100.00;98124.56;5092928;27;45386;-77
2023/01/17 05:09:59;;;;;;;;;23.75;17.75;;;;;2.68;100.00;98133.09;5097034;27;45467;-79
2023/01/17 05:12:25;;;;;;;;;21.50;18.25;;;;;2.64;100.00;98138.09;5099232;27;45880;-77
2023/01/17 05:14:51;;;;;;;;;22.75;22.50;;;;;2.61;100.00;98130.44;5099352;27;45907;-79
2023/01/17 05:17:17;;;;;;;;;22.50;20.25;;;;;2.61;100.00;98127.72;5098817;27;45468;-79
2023/01/17 05:19:43;;;;;;;;;22.25;18.00;;;;;2.59;100.00;98119.00;5096957;27;45406;-78
2023/01/17 05:22:15;;;;;;;;;26.25;24.50;;;;;2.46;100.00;98103.72;5095908;27;46294;-79
2023/01/17 05:24:46;;;;;;;;;28.25;23.50;;;;;2.55;100.00;98117.78;5080109;27;45829;-78
2023/01/17 05:27:13;;;;;;;;;25.50;24.00;;;;;2.53;100.00;98114.50;5098273;27;45747;-79
2023/01/17 05:29:40;;;;;;;;;28.50;22.75;;;;;2.50;100.00;98114.94;5080666;27;45898;-79
2023/01/17 05:32:06;;;;;;;;;25.00;21.00;;;;;2.49;100.00;98113.28;5075893;27;47166;-78
2023/01/17 05:34:32;;;;;;;;;22.50;21.00;;;;;2.34;100.00;98099.25;5092867;27;45464;-79
2023/01/17 05:36:58;;;;;;;;;23.75;21.00;;;;;2.45;100.00;98115.56;5095747;27;45876;-79
2023/01/17 05:39:25;;;;;;;;;22.00;21.25;;;;;2.45;100.00;98103.94;5097196;27;45354;-79
2023/01/17 05:41:50;;;;;;;;;23.25;21.25;;;;;2.43;100.00;98111.44;5076699;27;47496;-78
2023/01/17 05:44:16;;;;;;;;;18.00;16.00;;;;;2.43;100.00;98109.56;5081434;27;45839;-78
2023/01/17 05:46:41;;;;;;;;;28.25;24.25;;;;;2.41;100.00;98103.56;5094501;27;45622;-78
2023/01/17 05:49:07;;;;;;;;;33.50;24.50;;;;;2.42;100.00;98101.69;5112838;27;45490;-82
2023/01/17 05:51:36;;;;;;;;;21.75;14.50;;;;;2.35;100.00;98101.75;5099702;27;45453;-81
2023/01/17 05:54:03;;;;;;;;;24.50;24.25;;;;;2.32;100.00;98098.63;5105209;27;45692;-82
2023/01/17 05:56:28;;;;;;;;;23.25;20.75;;;;;2.32;100.00;98098.63;5103518;27;45567;-80
2023/01/17 05:58:54;;;;;;;;;26.25;22.25;;;;;2.27;100.00;98083.91;5101272;27;45550;-80
2023/01/17 06:01:19;;;;;;;;;25.50;25.50;;;;;2.22;100.00;98094.56;5093890;27;47234;-80
2023/01/17 06:03:45;;;;;;;;;25.00;21.00;;;;;2.25;100.00;98090.59;5100942;27;44793;-80
2023/01/17 06:06:22;;;;;;;;;26.75;23.75;;;;;2.23;100.00;98096.22;5100044;27;45869;-81
2023/01/17 06:08:48;;;;;;;;;21.00;17.00;;;;;2.08;100.00;98074.06;5101822;27;45717;-81
2023/01/17 06:11:13;;;;;;;;;28.00;23.50;;;;;2.18;100.00;98089.81;5081593;27;46843;-84
2023/01/17 06:13:39;;;;;;;;;31.75;26.75;;;;;2.17;100.00;98093.56;5098782;27;45538;-81
2023/01/17 06:16:05;;;;;;;;;29.75;22.75;;;;;2.12;100.00;98080.69;5102374;27;45465;-83
2023/01/17 06:18:31;;;;;;;;;13.75;12.25;;;;;2.11;100.00;98092.56;5099506;27;45768;-78
2023/01/17 06:20:56;;;;;;;;;24.00;23.50;;;;;2.14;100.00;98094.00;5075005;27;45959;-80
2023/01/17 06:23:23;;;;;;;;;32.00;25.75;;;;;2.07;100.00;98075.97;5094986;27;45706;-80
2023/01/17 06:25:49;;;;;;;;;29.00;21.25;;;;;2.25;100.00;98096.00;5098147;27;45584;-81
2023/01/17 06:28:26;;;;;;;;;26.50;23.00;;;;;2.33;100.00;98084.06;5105302;27;44786;-87
2023/01/17 06:30:51;;;;;;;;;27.25;22.50;;;;;2.20;100.00;98060.66;5083036;27;47343;-80
2023/01/17 06:33:17;;;;;;;;;29.50;27.00;;;;;2.44;100.00;98086.03;5105382;27;45599;-82
2023/01/17 06:35:47;;;;;;;;;23.25;22.75;;;;;2.36;100.00;98075.53;5107127;27;45479;-82
2023/01/17 06:38:13;;;;;;;;;25.25;19.00;;;;;2.51;100.00;98091.41;5108097;27;45393;-83
2023/01/17 06:40:38;;;;;;;;;24.75;22.50;;;;;2.51;100.00;98092.22;5107381;27;45453;-81
2023/01/17 06:43:04;;;;;;;;;23.25;21.00;;;;;2.56;100.00;98086.13;5102832;27;45340;-83
2023/01/17 06:45:31;;;;;;;;;29.75;23.00;;;;;2.41;100.00;98051.31;5084330;27;44792;-82
2023/01/17 06:47:58;;;;;;;;;17.25;13.50;;;;;2.56;100.00;98068.06;5109825;27;45374;-82
2023/01/17 06:50:24;;;;;;;;;34.00;23.50;;;;;2.64;100.00;98069.63;5106938;27;46039;-82
2023/01/17 06:52:58;;;;;;;;;33.00;24.75;;;;;2.69;100.00;98079.78;5100973;27;45885;-81
2023/01/17 06:55:28;;;;;;;;;20.75;19.00;;;;;2.56;100.00;98046.41;5087310;27;45454;-81
2023/01/17 06:57:55;;;;;;;;;23.75;20.50;;;;;2.54;100.00;98062.00;5112170;27;45733;-82
2023/01/17 07:00:21;;;;;;;;;26.25;24.75;;;;;2.68;100.00;98081.66;5116799;27;45343;-81
2023/01/17 07:02:50;;;;;;;;;26.25;21.75;;;;;2.67;100.00;98076.50;5081464;27;45316;-81
2023/01/17 07:05:16;;;;;;;;;28.50;23.00;;;;;2.67;100.00;98084.59;5108131;27;45524;-82
2023/01/17 07:07:43;;;;;;;;;26.25;20.25;;;;;2.70;100.00;98082.25;5098672;27;45814;-81
2023/01/17 07:10:11;;;;;;;;;27.25;23.00;;;;;2.69;100.00;98079.78;5105842;27;45417;-80
2023/01/17 07:12:36;;;;;;;;;19.75;18.00;;;;;2.67;100.00;98087.31;5116949;27;45358;-80
2023/01/17 07:15:02;;;;;;;;;23.00;19.50;;;;;2.68;100.00;98097.91;5103552;27;45449;-81
2023/01/17 07:17:27;;;;;;;;;23.50;20.50;;;;;2.63;100.00;98085.06;5103526;27;45616;-81
2023/01/17 07:19:53;;;;;;;;;28.50;25.50;;;;;2.67;100.00;98095.44;5096803;27;47057;-82
2023/01/17 07:22:21;;;;;;;;;28.50;22.75;;;;;2.55;100.00;98096.16;5082988;28;45476;-81
2023/01/17 07:24:46;;;;;;;;;24.25;22.50;;;;;2.56;100.00;98087.00;5093243;27;44800;-82
2023/01/17 07:27:11;;;;;;;;;33.75;25.75;;;;;2.63;100.00;98097.72;5107757;27;45855;-81
2023/01/17 07:29:37;;;;;;;;;18.50;17.00;;;;;2.52;100.00;98077.66;5082550;28;47394;-80
2023/01/17 07:32:02;;;;;;;;;29.00;26.25;;;;;2.62;100.00;98094.22;5087292;27;45451;-81
2023/01/17 07:34:28;;;;;;;;;24.75;17.75;;;;;2.60;100.00;98088.19;5088935;27;45396;-80
2023/01/17 07:36:53;;;;;;;;;33.00;27.25;;;;;2.59;100.00;98091.09;5108500;27;45741;-82
2023/01/17 07:39:19;;;;;;;;;21.00;19.25;;;;;2.65;100.00;98099.16;5109397;27;45608;-80
2023/01/17 07:41:45;;;;;;;;;26.25;17.75;;;;;2.65;100.00;98101.88;5110334;27;45402;-83
2023/01/17 07:44:12;;;;;;;;;19.67;17.33;;;;;2.65;100.00;98101.06;5112822;27;44834;-79
2023/01/17 07:46:38;;;;;;;;;24.25;19.50;;;;;2.65;100.00;98096.47;5114535;27;45461;-80
2023/01/17 07:49:03;;;;;;;;;24.00;18.75;;;;;2.63;100.00;98095.03;5103795;27;45974;-80
2023/01/17 07:51:29;;;;;;;;;17.75;15.75;;;;;2.63;100.00;98092.31;5103981;27;45900;-82
2023/01/17 07:53:54;;;;;;;;;24.00;21.00;;;;;2.61;100.00;98086.31;5105596;27;45421;-81
2023/01/17 07:56:20;;;;;;;;;25.75;19.75;;;;;2.62;100.00;98096.06;5106441;27;45448;-80
2023/01/17 07:58:47;;;;;;;;;20.75;18.25;;;;;2.61;100.00;98087.13;5112450;27;46093;-79
2023/01/17 08:01:13;;;;;;;;;21.00;14.00;;;;;2.52;100.00;98085.78;5121019;27;45377;-80
2023/01/17 08:03:39;;;;;;;;;23.25;16.50;;;;;2.67;100.00;98098.94;5118646;27;45546;-81
2023/01/17 08:06:26;;;;;;;;;23.00;19.50;;;;;2.63;100.00;98095.88;5112611;27;45275;-80
2023/01/17 08:08:55;;;;;;;;;17.25;14.25;;;;;2.67;100.00;98101.66;5110671;27;47274;-81
2023/01/17 08:11:22;;;;;;;;;24.75;18.50;;;;;2.53;100.00;98084.72;5116441;27;45491;-81
2023/01/17 08:13:47;;;;;;;;;24.50;22.50;;;;;2.63;100.00;98092.31;5128864;27;45376;-82
2023/01/17 08:16:14;;;;;;;;;19.25;17.75;;;;;2.61;100.00;98089.84;5121782;27;45766;-84
2023/01/17 08:18:40;;;;;;;;;33.00;26.75;;;;;2.65;100.00;98115.41;5107495;27;47257;-82
2023/01/17 08:21:15;;;;;;;;;29.00;20.25;;;;;2.71;100.00;98120.97;5108999;27;45382;-82
2023/01/17 08:23:41;;;;;;;;;28.75;22.25;;;;;2.72;100.00;98106.41;5091714;27;45766;-83
2023/01/17 08:26:07;;;;;;;;;30.25;23.50;;;;;2.76;100.00;98100.31;5112065;27;45359;-82
2023/01/17 08:28:33;;;;;;;;;23.00;21.25;;;;;2.79;100.00;98104.47;5108726;27;45503;-83
2023/01/17 08:31:05;;;;;;;;;24.00;20.25;;;;;2.84;100.00;98107.31;5097203;27;45463;-83
2023/01/17 08:33:31;;;;;;;;;30.25;25.25;;;;;2.87;100.00;98116.88;5098953;27;45468;-84
2023/01/17 08:35:57;;;;;;;;;30.50;25.25;;;;;2.78;100.00;98111.72;5110900;27;45362;-82
2023/01/17 08:38:22;;;;;;;;;21.75;18.00;;;;;2.86;100.00;98117.91;5108895;27;45627;-82
2023/01/17 08:40:49;;;;;;;;;28.50;24.75;;;;;2.80;100.00;98108.81;5106906;27;45931;-82
2023/01/17 08:43:15;;;;;;;;;26.00;20.00;;;;;2.91;100.00;98121.59;5105462;27;45202;-81
2023/01/17 08:45:44;;;;;;;;;29.75;19.75;;;;;2.86;100.00;98116.03;5101439;27;44808;-81
2023/01/17 08:48:10;;;;;;;;;21.50;17.00;;;;;2.93;100.00;98114.06;5104367;27;46701;-81
2023/01/17 08:50:35;;;;;;;;;21.50;19.00;;;;;2.94;100.00;98120.34;5110153;27;44756;-82
2023/01/17 08:53:01;;;;;;;;;30.50;24.00;;;;;2.92;100.00;98115.16;5117420;27;44759;-82
2023/01/17 08:55:26;;;;;;;;;17.00;17.00;;;;;2.90;100.00;98106.41;5109131;27;46091;-82
2023/01/17 08:57:52;;;;;;;;;26.75;23.50;;;;;2.98;100.00;98103.41;5111402;27;46140;-83
2023/01/17 09:00:18;;;;;;;;;30.50;23.00;;;;;3.01;100.00;98110.28;5112383;27;45417;-82
2023/01/17 09:02:44;;;;;;;;;25.75;17.25;;;;;2.96;100.00;98091.16;5119997;27;45761;-82
2023/01/17 09:05:10;;;;;;;;;25.50;24.25;;;;;3.07;100.00;98100.41;5091997;27;46210;-82
2023/01/17 09:07:37;;;;;;;;;24.25;22.25;;;;;3.12;100.00;98100.56;5110106;27;45685;-82
2023/01/17 09:10:03;;;;;;;;;28.75;23.50;;;;;3.15;100.00;98100.91;5110161;27;45835;-83
2023/01/17 09:12:31;;;;;;;;;30.50;24.00;;;;;3.23;100.00;98104.38;5118820;27;45758;-81
2023/01/17 09:14:57;;;;;;;;;39.25;24.75;;;;;3.24;100.00;98096.03;5114795;27;45265;-82
2023/01/17 09:17:22;;;;;;;;;32.25;25.00;;;;;3.36;100.00;98106.94;5115097;27;45708;-82
2023/01/17 09:19:48;;;;;;;;;32.75;28.00;;;;;3.40;100.00;98105.44;5112864;27;45611;-81
2023/01/17 09:22:13;;;;;;;;;35.75;27.75;;;;;3.45;100.00;98099.31;5110670;27;45361;-81
2023/01/17 09:24:39;;;;;;;;;31.75;26.25;;;;;3.53;100.00;98090.88;5092991;27;45750;-81
2023/01/17 09:27:05;;;;;;;;;29.75;20.00;;;;;3.71;100.00;98103.56;5109605;27;46740;-82
2023/01/17 09:29:31;;;;;;;;;21.25;18.50;;;;;3.70;100.00;98089.19;5113410;27;45415;-82
2023/01/17 09:31:57;;;;;;;;;21.75;20.00;;;;;3.89;100.00;98105.38;5121888;27;45398;-81
2023/01/17 09:34:23;;;;;;;;;27.00;22.25;;;;;3.84;100.00;98086.28;5111146;27;45524;-82
2023/01/17 09:36:49;;;;;;;;;27.50;22.50;;;;;4.04;100.00;98096.81;5124702;27;45705;-84
2023/01/17 09:39:15;;;;;;;;;30.00;19.75;;;;;4.18;100.00;98102.88;5110024;27;45341;-83
2023/01/17 09:42:08;;;;;;;;;26.00;20.00;;;;;4.33;100.00;98095.13;5111195;27;44830;-83
2023/01/17 09:44:42;;;;;;;;;32.00;23.25;;;;;4.37;100.00;98092.75;5081383;27;46191;-83
2023/01/17 09:47:40;;;;;;;;;25.00;21.25;;;;;4.46;100.00;98098.66;5108331;27;45960;-81
2023/01/17 09:50:17;;;;;;;;;27.00;21.25;;;;;4.53;100.00;98111.06;5100163;27;45395;-81
2023/01/17 09:52:44;;;;;;;;;22.50;18.75;;;;;4.59;100.00;98115.53;5102030;27;45383;-82
2023/01/17 09:55:15;;;;;;;;;31.25;25.75;;;;;4.58;100.00;98104.91;5114310;27;45488;-84
2023/01/17 09:57:57;;;;;;;;;12.33;8.00;;;;;4.61;100.00;98112.63;5114521;27;45372;-85
2023/01/17 10:00:26;;;;;;;;;23.75;18.75;;;;;4.70;100.00;98115.78;5099715;27;45345;-85
2023/01/17 10:03:21;;;;;;;;;31.25;22.00;;;;;4.78;100.00;98121.69;5114634;27;45365;-84
2023/01/17 10:06:09;;;;;;;;;27.33;22.00;;;;;4.85;100.00;98121.59;5080854;27;45728;-85
2023/01/17 10:09:07;;;;;;;;;19.33;15.00;;;;;4.80;100.00;98110.59;5118267;27;45494;-84
2023/01/17 10:11:45;;;;;;;;;21.00;18.00;;;;;4.97;100.00;98132.44;5117513;27;45657;-84
2023/01/17 10:14:50;;;;;;;;;22.00;14.00;;;;;5.00;100.00;98125.69;5098851;27;45528;-83
2023/01/17 10:17:35;;;;;;;;;23.67;16.67;;;;;4.99;100.00;98134.94;5116342;27;45584;-82
2023/01/17 10:20:24;;;;;;;;;19.00;17.00;;;;;5.02;100.00;98135.25;5095652;27;47309;-85
2023/01/17 10:23:02;;;;;;;;;23.00;19.00;;;;;5.05;100.00;98134.78;5100977;27;45323;-84
2023/01/17 10:25:32;;;;;;;;;18.33;15.00;;;;;5.05;100.00;98132.06;5115949;27;45422;-83
2023/01/17 10:28:02;;;;;;;;;24.00;17.67;;;;;5.08;100.00;98131.59;5095252;27;45505;-84
2023/01/17 10:30:47;;;;;;;;;19.67;14.33;;;;;5.08;100.00;98128.88;5112650;27;45532;-82
2023/01/17 10:33:23;;;;;;;;;18.67;16.00;;;;;5.12;100.00;98130.06;5115740;27;44854;-84
2023/01/17 10:35:57;;;;;;;;;20.75;14.50;;;;;5.09;100.00;98116.97;5112048;27;45552;-83
2023/01/17 10:38:36;;;;;;;;;22.00;20.00;;;;;5.08;100.00;98111.75;5125567;27;45272;-84
2023/01/17 10:41:14;;;;;;;;;23.67;19.67;;;;;5.07;100.00;98100.06;5113502;27;45627;-83
2023/01/17 10:44:04;;;;;;;;;15.00;15.00;;;;;5.27;100.00;98126.03;5096140;27;44765;-82
2023/01/17 10:46:53;;;;;;;;;21.00;16.00;;;;;5.21;100.00;98127.81;5101930;27;45727;-83
2023/01/17 10:49:23;;;;;;;;;24.33;21.00;;;;;5.20;100.00;98126.16;5065939;27;45871;-83
2023/01/17 10:52:10;;;;;;;;;20.33;18.00;;;;;5.19;100.00;98123.66;5108499;27;46033;-83
2023/01/17 10:54:48;;;;;;;;;24.00;17.33;;;;;5.17;100.00;98125.81;5119518;27;45387;-81
2023/01/17 10:57:24;;;;;;;;;20.33;17.67;;;;;5.12;100.00;98124.63;5114297;27;45416;-82
2023/01/17 10:59:50;;;;;;;;;17.00;15.00;;;;;5.12;100.00;98119.19;5086896;27;46123;-82
2023/01/17 11:02:30;;;;;;;;;19.67;17.67;;;;;5.16;100.00;98113.28;5118863;27;45503;-81
2023/01/17 11:05:04;;;;;;;;;22.00;17.67;;;;;5.07;100.00;98102.78;5106248;27;45362;-83
2023/01/17 11:07:30;;;;;;;;;25.67;20.00;;;;;4.91;100.00;98093.47;5104695;27;45415;-82
2023/01/17 11:09:57;;;;;;;;;20.67;18.00;;;;;4.94;100.00;98089.47;5086428;28;45818;-82
2023/01/17 11:12:45;;;;;;;;;22.33;19.33;;;;;5.05;100.00;98106.81;5105750;27;45265;-83
2023/01/17 11:15:11;;;;;;;;;19.67;15.33;;;;;5.11;100.00;98100.41;5112438;27;45567;-81
2023/01/17 11:17:44;;;;;;;;;22.33;15.67;;;;;5.09;100.00;98091.66;5108497;27;45288;-82
2023/01/17 11:20:18;;;;;;;;;18.00;16.67;;;;;5.14;100.00;98102.66;5106958;27;44914;-85
2023/01/17 11:23:00;;;;;;;;;22.33;18.67;;;;;5.09;100.00;98080.78;5103143;27;45464;-81
2023/01/17 11:25:27;;;;;;;;;23.00;17.33;;;;;5.12;100.00;98085.78;5099674;27;45758;-81
2023/01/17 11:28:03;;;;;;;;;19.67;17.00;;;;;5.20;100.00;98088.13;5092348;27;45402;-81
2023/01/17 11:30:29;;;;;;;;;17.33;15.67;;;;;5.11;100.00;98079.50;5099304;27;45569;-73
2023/01/17 11:33:00;;;;;;;;;20.33;17.00;;;;;5.12;100.00;98081.16;5079145;27;46706;-76
2023/01/17 11:35:29;;;;;;;;;13.67;10.33;;;;;5.18;100.00;98101.13;5068950;28;45704;-75
2023/01/17 11:38:17;;;;;;;;;21.67;15.00;;;;;5.16;100.00;98094.25;5101348;27;45469;-75
2023/01/17 11:40:44;;;;;;;;;19.00;15.33;;;;;5.09;100.00;98086.22;5093050;27;45502;-74
2023/01/17 11:43:09;;;;;;;;;21.67;18.33;;;;;5.10;100.00;98088.75;5069047;27;48537;-77
2023/01/17 11:45:36;;;;;;;;;17.33;13.33;;;;;5.08;100.00;98098.19;5095398;27;45645;-75
2023/01/17 11:48:07;;;;;;;;;21.33;17.00;;;;;5.09;100.00;98084.34;5096473;27;45771;-74
2023/01/17 11:50:36;;;;;;;;;10.00;9.00;;;;;5.11;100.00;98081.41;5081039;27;46078;-76
2023/01/17 11:53:32;;;;;;;;;21.67;15.00;;;;;5.10;100.00;98080.59;5079845;27;45439;-74
2023/01/17 11:56:05;;;;;;;;;21.00;17.00;;;;;5.12;100.00;98086.59;5084560;27;46041;-75
2023/01/17 11:58:34;;;;;;;;;10.33;10.33;;;;;5.08;100.00;98085.41;5092408;27;45729;-75
2023/01/17 12:01:16;;;;;;;;;16.00;14.67;;;;;5.06;100.00;98079.41;5093681;27;45781;-75
2023/01/17 12:04:21;;;;;;;;;23.33;19.67;;;;;5.07;100.00;98077.50;5095773;27;45666;-74
2023/01/17 12:06:56;;;;;;;;;17.33;14.33;;;;;5.06;100.00;98071.25;5099289;27;45601;-74
2023/01/17 12:09:40;;;;;;;;;16.00;14.67;;;;;5.09;100.00;98068.06;5073599;27;46474;-74
2023/01/17 12:15:43;;;;;;;;;14.67;10.67;;;;;5.07;100.00;98059.31;5093800;27;45776;-71
2023/01/17 12:18:43;;;;;;;;;14.00;13.33;;;;;5.08;100.00;98063.69;5091874;27;45955;-72
2023/01/17 12:21:16;;;;;;;;;10.33;10.00;;;;;5.05;100.00;98064.16;5058408;27;45739;-73
2023/01/17 12:23:56;;;;;;;;;10.00;10.00;;;;;5.04;100.00;98067.94;5095339;27;45659;-73
2023/01/17 12:26:33;;;;;;;;;12.33;11.00;;;;;4.95;100.00;98066.66;5087167;27;45477;-74
2023/01/17 12:29:25;;;;;;;;;15.33;12.67;;;;;4.93;100.00;98068.78;5096633;27;45855;-74
2023/01/17 12:32:31;;;;;;;;;23.00;15.33;;;;;4.87;100.00;98061.59;5095549;27;46233;-75
2023/01/17 12:35:11;;;;;;;;;12.67;10.00;;;;;4.78;100.00;98042.13;5097384;27;45731;-74
2023/01/17 12:37:44;;;;;;;;;16.67;14.33;;;;;4.84;100.00;98057.47;5098967;27;46118;-76
2023/01/17 12:40:16;;;;;;;;;12.00;11.33;;;;;4.86;100.00;98059.94;5077440;27;45456;-74
2023/01/17 12:43:18;;;;;;;;;16.67;12.33;;;;;4.85;100.00;98055.56;5087264;27;46753;-72
2023/01/17 12:45:47;;;;;;;;;9.00;8.67;;;;;4.84;100.00;98062.09;5115014;27;45744;-74
2023/01/17 12:48:17;;;;;;;;;12.33;10.67;;;;;4.82;100.00;98059.59;5112885;27;45560;-73
2023/01/17 12:50:58;;;;;;;;;11.00;8.67;;;;;4.82;100.00;98056.06;5091006;27;45430;-73
2023/01/17 12:53:36;;;;;;;;;19.33;9.67;;;;;4.81;100.00;98057.94;5086143;27;45510;-75
2023/01/17 12:56:05;;;;;;;;;6.67;6.67;;;;;4.75;100.00;98048.03;5096655;27;45801;-74
2023/01/17 12:58:45;;;;;;;;;10.00;10.00;;;;;4.76;100.00;98049.69;5089798;27;46401;-71
2023/01/17 13:01:27;;;;;;;;;11.33;8.67;;;;;4.81;100.00;98057.13;5085071;27;45539;-73
2023/01/17 13:04:15;;;;;;;;;14.33;11.00;;;;;4.80;100.00;98056.28;5078256;27;45751;-71
2023/01/17 13:06:53;;;;;;;;;16.67;15.00;;;;;4.72;100.00;98033.03;5083514;27;47299;-72
2023/01/17 13:09:22;;;;;;;;;17.33;14.00;;;;;4.86;100.00;98051.81;5077674;27;46443;-74
2023/01/17 13:11:55;;;;;;;;;8.00;1.00;;;;;4.77;100.00;98029.63;5070985;27;45741;-74